Port Heiden, AK

8:08 AM AKDT on August 21, 2017 (GMT -0800)
Port Heiden

Weather History for PAPH - April, 2014

Change the Weather History Date:

Monday, April 7, 2014

  Actual Average Record
Temperature  
Mean Temperature 28 °F -  
Max Temperature 32 °F 35 °F 46 °F (2004)
Min Temperature 24 °F 25 °F 10 °F (2008)
Degree Days  
Heating Degree Days 37    
Moisture  
Dew Point 17 °F    
Average Humidity 61    
Maximum Humidity 80    
Minimum Humidity 35    
Precipitation  
Precipitation 0.00 in - - ()
Sea Level Pressure  
Sea Level Pressure 29.68 in    
Wind  
Wind Speed 15 mph (West)    
Max Wind Speed 18 mph    
Max Gust Speed 23 mph    
Visibility 10 miles    
Events      
Averages and records for this station are not official NWS values.
T = Trace of Precipitation, MM = Missing Value Source: NWS Daily Summary

Daily Weather History Graph

Daily Weather History Graph

Search for Another Location

Airport or City:

Trip Planner

Search our weather history database for the weather conditions in past years. The results will help you decide how hot, cold, wet, or windy it might be!

Date:

Astronomy

Apr. 07, 2014 Rise Set
Actual Time 7:47 AM AKDT 9:27 PM AKDT
Civil Twilight 7:07 AM AKDT 10:07 PM AKDT
Nautical Twilight 6:17 AM AKDT 10:57 PM AKDT
Astronomical Twilight 5:19 AM AKDT 11:56 PM AKDT
Moon 1:24 PM AKDT (4/7) 4:42 AM AKDT (4/7)
Length of Visible Light 15h 00m
Length of Day
13h 40m
First Quarter, 55% of the Moon is Illuminated
Apr 7
First Quarter
Apr 14
Full
Apr 21
Last Quarter
Apr 28
New
May 6
First Quarter

Hourly Weather History & Observations

Time (AKDT) Temp. Windchill Dew Point Humidity Pressure Visibility Wind Dir Wind Speed Gust Speed Precip Events Conditions
12:16 AM 30.2 °F 18.9 °F 21.2 °F 69% 29.67 in 10.0 mi WSW 16.1 mph - N/A   Overcast
12:36 AM 30.2 °F 19.8 °F 21.2 °F 69% 29.67 in 5.0 mi SW 13.8 mph - N/A   Overcast
12:56 AM 30.2 °F 20.2 °F 21.2 °F 69% 29.67 in 8.0 mi WSW 12.7 mph - N/A   Overcast
1:16 AM 30.2 °F 19.3 °F 21.2 °F 69% 29.67 in 10.0 mi WSW 15.0 mph - N/A   Overcast
1:36 AM 30.2 °F 19.8 °F 21.2 °F 69% 29.67 in 8.0 mi WSW 13.8 mph - N/A   Overcast
1:56 AM 30.2 °F 20.2 °F 24.8 °F 80% 29.67 in 10.0 mi WSW 12.7 mph - N/A   Mostly Cloudy
2:16 AM 30.2 °F 19.8 °F 23.0 °F 75% 29.67 in 10.0 mi West 13.8 mph - N/A   Overcast
2:36 AM 30.2 °F 19.3 °F 23.0 °F 75% 29.67 in 10.0 mi WSW 15.0 mph - N/A   Overcast
2:56 AM 30.2 °F 19.8 °F 24.8 °F 80% 29.66 in 5.0 mi West 13.8 mph - N/A   Overcast
3:16 AM 30.2 °F 19.8 °F 24.8 °F 80% 29.66 in 7.0 mi WSW 13.8 mph - N/A   Overcast
3:36 AM 30.2 °F 20.2 °F 24.8 °F 80% 29.66 in 2.5 mi West 12.7 mph - N/A   Overcast
3:56 AM 30.2 °F 19.3 °F 24.8 °F 80% 29.66 in 8.0 mi West 15.0 mph 18.4 mph N/A   Overcast
4:16 AM 30.2 °F 20.2 °F 23.0 °F 75% 29.66 in 10.0 mi West 12.7 mph - N/A   Overcast
4:36 AM 30.2 °F 19.3 °F 23.0 °F 75% 29.66 in 10.0 mi West 15.0 mph - N/A   Overcast
4:56 AM 30.2 °F 19.3 °F 21.2 °F 69% 29.66 in 10.0 mi West 15.0 mph - N/A   Overcast
5:16 AM 30.2 °F 18.9 °F 21.2 °F 69% 29.67 in 10.0 mi West 16.1 mph - N/A   Overcast
5:36 AM 30.2 °F 20.2 °F 21.2 °F 69% 29.66 in 10.0 mi West 12.7 mph - N/A   Overcast
5:56 AM 28.4 °F 16.2 °F 19.4 °F 69% 29.66 in 10.0 mi West 17.3 mph 21.9 mph N/A   Overcast
6:16 AM 28.4 °F 16.2 °F 19.4 °F 69% 29.66 in 10.0 mi West 17.3 mph - N/A   Overcast
6:36 AM 28.4 °F 16.2 °F 19.4 °F 69% 29.66 in 10.0 mi West 17.3 mph 20.7 mph N/A   Overcast
6:56 AM 28.4 °F 16.6 °F 19.4 °F 69% 29.66 in 10.0 mi West 16.1 mph - N/A   Overcast
7:16 AM 28.4 °F 17.0 °F 19.4 °F 69% 29.66 in 10.0 mi West 15.0 mph 23.0 mph N/A   Overcast
7:36 AM 28.4 °F 16.6 °F 19.4 °F 69% 29.67 in 10.0 mi West 16.1 mph 21.9 mph N/A   Overcast
7:56 AM 28.4 °F 16.6 °F 17.6 °F 64% 29.67 in 10.0 mi West 16.1 mph - N/A   Overcast
8:16 AM 28.4 °F 16.6 °F 17.6 °F 64% 29.67 in 10.0 mi West 16.1 mph - N/A   Overcast
8:36 AM 28.4 °F 17.5 °F 17.6 °F 64% 29.67 in 10.0 mi West 13.8 mph - N/A   Overcast
8:56 AM 28.4 °F 17.0 °F 17.6 °F 64% 29.67 in 10.0 mi West 15.0 mph - N/A   Overcast
9:16 AM 28.4 °F 17.0 °F 15.8 °F 59% 29.67 in 10.0 mi West 15.0 mph - N/A   Overcast
9:36 AM 28.4 °F 17.0 °F 15.8 °F 59% 29.68 in 10.0 mi West 15.0 mph 20.7 mph N/A   Overcast
9:56 AM 28.4 °F 16.6 °F 15.8 °F 59% 29.68 in 10.0 mi West 16.1 mph - N/A   Overcast
10:16 AM 28.4 °F 17.0 °F 15.8 °F 59% 29.68 in 10.0 mi West 15.0 mph - N/A   Overcast
10:36 AM 28.4 °F 16.6 °F 15.8 °F 59% 29.67 in 10.0 mi West 16.1 mph - N/A   Overcast
10:56 AM 28.4 °F 18.5 °F 17.6 °F 64% 29.67 in 10.0 mi West 11.5 mph - N/A   Overcast
11:16 AM 28.4 °F 16.2 °F 15.8 °F 59% 29.68 in 10.0 mi West 17.3 mph - N/A   Overcast
11:36 AM 28.4 °F 17.0 °F 17.6 °F 64% 29.68 in 10.0 mi West 15.0 mph - N/A   Overcast
11:56 AM 28.4 °F 16.6 °F 15.8 °F 59% 29.68 in 10.0 mi West 16.1 mph 19.6 mph N/A   Overcast
12:16 PM 28.4 °F 16.6 °F 15.8 °F 59% 29.67 in 10.0 mi West 16.1 mph - N/A   Overcast
12:36 PM 28.4 °F 17.0 °F 17.6 °F 64% 29.68 in 10.0 mi WNW 15.0 mph - N/A   Overcast
12:56 PM 28.4 °F 17.0 °F 15.8 °F 59% 29.67 in 10.0 mi West 15.0 mph - N/A   Overcast
1:16 PM 28.4 °F 17.0 °F 15.8 °F 59% 29.68 in 10.0 mi West 15.0 mph - N/A   Overcast
1:36 PM 28.4 °F 18.5 °F 15.8 °F 59% 29.68 in 10.0 mi West 11.5 mph - N/A   Overcast
1:56 PM 30.2 °F 18.5 °F 17.6 °F 60% 29.68 in 10.0 mi West 17.3 mph - N/A   Overcast
2:16 PM 28.4 °F 17.0 °F 15.8 °F 59% 29.69 in 10.0 mi West 15.0 mph 21.9 mph N/A   Overcast
2:36 PM 30.2 °F 19.3 °F 17.6 °F 60% 29.69 in 10.0 mi WNW 15.0 mph 20.7 mph N/A   Overcast
2:56 PM 30.2 °F 18.1 °F 17.6 °F 60% 29.69 in 10.0 mi West 18.4 mph - N/A   Overcast
3:16 PM 30.2 °F 19.3 °F 15.8 °F 55% 29.68 in 10.0 mi West 15.0 mph - N/A   Mostly Cloudy
3:36 PM 30.2 °F 19.3 °F 17.6 °F 60% 29.69 in 10.0 mi West 15.0 mph - N/A   Overcast
3:56 PM 30.2 °F 18.9 °F 15.8 °F 55% 29.69 in 10.0 mi WNW 16.1 mph - N/A   Overcast
4:16 PM 30.2 °F 18.5 °F 15.8 °F 55% 29.69 in 10.0 mi WNW 17.3 mph 23.0 mph N/A   Mostly Cloudy
4:36 PM 30.2 °F 18.5 °F 15.8 °F 55% 29.69 in 10.0 mi West 17.3 mph - N/A   Mostly Cloudy
4:56 PM 28.4 °F 16.6 °F 15.8 °F 59% 29.69 in 10.0 mi WNW 16.1 mph 21.9 mph N/A   Mostly Cloudy
5:16 PM 30.2 °F 19.3 °F 15.8 °F 55% 29.70 in 10.0 mi WNW 15.0 mph 21.9 mph N/A   Mostly Cloudy
5:36 PM 30.2 °F 18.5 °F 15.8 °F 55% 29.70 in 10.0 mi WNW 17.3 mph - N/A   Mostly Cloudy
5:56 PM 28.4 °F 15.8 °F 14.0 °F 55% 29.70 in 10.0 mi WNW 18.4 mph 23.0 mph N/A   Mostly Cloudy
6:16 PM 30.2 °F 18.9 °F 12.2 °F 47% 29.70 in 10.0 mi West 16.1 mph - N/A   Mostly Cloudy
6:36 PM 28.4 °F 16.6 °F 12.2 °F 51% 29.70 in 10.0 mi West 16.1 mph 23.0 mph N/A   Scattered Clouds
6:56 PM 28.4 °F 16.6 °F 12.2 °F 51% 29.70 in 10.0 mi WNW 16.1 mph 20.7 mph N/A   Mostly Cloudy
7:16 PM 28.4 °F 16.2 °F 12.2 °F 51% 29.70 in 10.0 mi WNW 17.3 mph 20.7 mph N/A   Mostly Cloudy
7:36 PM 28.4 °F 17.0 °F 12.2 °F 51% 29.70 in 10.0 mi WNW 15.0 mph - N/A   Mostly Cloudy
7:56 PM 28.4 °F 16.2 °F 12.2 °F 51% 29.69 in 10.0 mi WNW 17.3 mph 21.9 mph N/A   Mostly Cloudy
8:16 PM 28.4 °F 17.0 °F 12.2 °F 51% 29.69 in 10.0 mi WNW 15.0 mph - N/A   Mostly Cloudy
8:36 PM 26.6 °F 14.3 °F 10.4 °F 51% 29.69 in 10.0 mi NW 16.1 mph - N/A   Mostly Cloudy
8:56 PM 26.6 °F 15.2 °F 10.4 °F 51% 29.69 in 10.0 mi NW 13.8 mph - N/A   Partly Cloudy
9:16 PM 26.6 °F 15.7 °F 12.2 °F 55% 29.69 in 10.0 mi WNW 12.7 mph - N/A   Scattered Clouds
9:36 PM 24.8 °F 14.0 °F 10.4 °F 54% 29.68 in 10.0 mi WNW 11.5 mph - N/A   Mostly Cloudy
9:56 PM 26.6 °F 16.2 °F 10.4 °F 51% 29.68 in 10.0 mi WNW 11.5 mph - N/A   Scattered Clouds
10:16 PM 26.6 °F 17.5 °F 10.4 °F 51% 29.68 in 10.0 mi WNW 9.2 mph - N/A   Mostly Cloudy
10:36 PM 24.8 °F 15.3 °F 10.4 °F 54% 29.69 in 10.0 mi NW 9.2 mph - N/A   Mostly Cloudy
10:56 PM 24.8 °F 15.3 °F 10.4 °F 54% 29.69 in 10.0 mi WNW 9.2 mph - N/A   Scattered Clouds
11:16 PM 24.8 °F 15.3 °F 10.4 °F 54% 29.69 in 10.0 mi NW 9.2 mph - N/A   Mostly Cloudy
11:36 PM 26.6 °F 16.2 °F 10.4 °F 51% 29.69 in 10.0 mi WNW 11.5 mph - N/A   Mostly Cloudy
11:56 PM 24.8 °F 15.3 °F 10.4 °F 54% 29.68 in 10.0 mi WNW 9.2 mph - N/A   Mostly Cloudy